ΕΜΥ, Εθνική Μετεωρολογική Υπηρεσία - Δελτία Καιρού, Προγνώσεις

ΑΕΡΟΝΑΥΤΙΛΙΑ

GREEK AIRPORTS CODES

LGAV 071620Z 03008KT 350V060 9999 FEW030 28/14 Q1012 NOSIG=

EUROPEAN AIRPORTS CODES

LFPO 071500Z 36010KT 320V030 9999 SCT032 BKN047 21/14 Q1028NOSIG=